sensor_id;sensor_type;location;lat;lon;timestamp;temperature;humidity
13606;DHT22;6874;52.084;5.090;2024-03-25T00:02:06;5.80;99.90
13606;DHT22;6874;52.084;5.090;2024-03-25T00:04:33;5.80;99.90
13606;DHT22;6874;52.084;5.090;2024-03-25T00:06:59;5.80;99.90
13606;DHT22;6874;52.084;5.090;2024-03-25T00:09:25;5.70;99.90
13606;DHT22;6874;52.084;5.090;2024-03-25T00:11:50;5.70;99.90
13606;DHT22;6874;52.084;5.090;2024-03-25T00:14:24;5.70;99.90
13606;DHT22;6874;52.084;5.090;2024-03-25T00:16:50;5.70;99.90
13606;DHT22;6874;52.084;5.090;2024-03-25T00:19:16;5.60;99.90
13606;DHT22;6874;52.084;5.090;2024-03-25T00:21:41;5.60;99.90
13606;DHT22;6874;52.084;5.090;2024-03-25T00:24:08;5.60;99.90
13606;DHT22;6874;52.084;5.090;2024-03-25T00:26:33;5.60;99.90
13606;DHT22;6874;52.084;5.090;2024-03-25T00:28:59;5.60;99.90
13606;DHT22;6874;52.084;5.090;2024-03-25T00:31:25;5.60;99.90
13606;DHT22;6874;52.084;5.090;2024-03-25T00:33:50;5.60;99.90
13606;DHT22;6874;52.084;5.090;2024-03-25T00:36:16;5.60;99.90
13606;DHT22;6874;52.084;5.090;2024-03-25T00:38:41;5.60;99.90
13606;DHT22;6874;52.084;5.090;2024-03-25T00:41:08;5.60;99.90
13606;DHT22;6874;52.084;5.090;2024-03-25T00:43:34;5.60;99.90
13606;DHT22;6874;52.084;5.090;2024-03-25T00:45:59;5.60;99.90
13606;DHT22;6874;52.084;5.090;2024-03-25T00:48:25;5.50;99.90
13606;DHT22;6874;52.084;5.090;2024-03-25T00:50:50;5.50;99.90
13606;DHT22;6874;52.084;5.090;2024-03-25T00:53:16;5.50;99.90
13606;DHT22;6874;52.084;5.090;2024-03-25T00:55:41;5.50;99.90
13606;DHT22;6874;52.084;5.090;2024-03-25T00:58:07;5.40;99.90
13606;DHT22;6874;52.084;5.090;2024-03-25T01:00:33;5.40;99.90
13606;DHT22;6874;52.084;5.090;2024-03-25T01:02:58;5.40;99.90
13606;DHT22;6874;52.084;5.090;2024-03-25T01:05:24;5.40;99.90
13606;DHT22;6874;52.084;5.090;2024-03-25T01:07:49;5.40;99.90
13606;DHT22;6874;52.084;5.090;2024-03-25T01:10:16;5.30;99.90
13606;DHT22;6874;52.084;5.090;2024-03-25T01:12:41;5.30;99.90
13606;DHT22;6874;52.084;5.090;2024-03-25T01:15:07;5.30;99.90
13606;DHT22;6874;52.084;5.090;2024-03-25T01:17:35;5.30;99.90
13606;DHT22;6874;52.084;5.090;2024-03-25T01:20:01;5.30;99.90
13606;DHT22;6874;52.084;5.090;2024-03-25T01:22:26;5.20;99.90
13606;DHT22;6874;52.084;5.090;2024-03-25T01:24:52;5.20;99.90
13606;DHT22;6874;52.084;5.090;2024-03-25T01:27:18;5.20;99.90
13606;DHT22;6874;52.084;5.090;2024-03-25T01:29:43;5.20;99.90
13606;DHT22;6874;52.084;5.090;2024-03-25T01:32:09;5.20;99.90
13606;DHT22;6874;52.084;5.090;2024-03-25T01:34:34;5.10;99.90
13606;DHT22;6874;52.084;5.090;2024-03-25T01:37:00;5.10;99.90
13606;DHT22;6874;52.084;5.090;2024-03-25T01:39:25;5.10;99.90
13606;DHT22;6874;52.084;5.090;2024-03-25T01:41:51;5.10;99.90
13606;DHT22;6874;52.084;5.090;2024-03-25T01:44:16;5.00;99.90
13606;DHT22;6874;52.084;5.090;2024-03-25T01:46:42;5.00;99.90
13606;DHT22;6874;52.084;5.090;2024-03-25T01:49:08;5.00;99.90
13606;DHT22;6874;52.084;5.090;2024-03-25T01:51:35;5.00;99.90
13606;DHT22;6874;52.084;5.090;2024-03-25T01:54:02;5.00;99.90
13606;DHT22;6874;52.084;5.090;2024-03-25T01:56:31;4.90;99.90
13606;DHT22;6874;52.084;5.090;2024-03-25T01:58:57;4.90;99.90
13606;DHT22;6874;52.084;5.090;2024-03-25T02:01:22;4.90;99.90
13606;DHT22;6874;52.084;5.090;2024-03-25T02:03:48;4.90;99.90
13606;DHT22;6874;52.084;5.090;2024-03-25T02:06:17;4.80;99.90
13606;DHT22;6874;52.084;5.090;2024-03-25T02:08:43;4.80;99.90
13606;DHT22;6874;52.084;5.090;2024-03-25T02:11:10;4.80;99.90
13606;DHT22;6874;52.084;5.090;2024-03-25T02:13:36;4.80;99.90
13606;DHT22;6874;52.084;5.090;2024-03-25T02:16:03;4.80;99.90
13606;DHT22;6874;52.084;5.090;2024-03-25T02:18:29;4.80;99.90
13606;DHT22;6874;52.084;5.090;2024-03-25T02:20:56;4.80;99.90
13606;DHT22;6874;52.084;5.090;2024-03-25T02:23:21;4.80;99.90
13606;DHT22;6874;52.084;5.090;2024-03-25T02:25:50;4.80;99.90
13606;DHT22;6874;52.084;5.090;2024-03-25T02:28:16;4.80;99.90
13606;DHT22;6874;52.084;5.090;2024-03-25T02:30:42;4.80;99.90
13606;DHT22;6874;52.084;5.090;2024-03-25T02:33:08;4.80;99.90
13606;DHT22;6874;52.084;5.090;2024-03-25T02:35:34;4.80;99.90
13606;DHT22;6874;52.084;5.090;2024-03-25T02:38:00;4.80;99.90
13606;DHT22;6874;52.084;5.090;2024-03-25T02:40:26;4.80;99.90
13606;DHT22;6874;52.084;5.090;2024-03-25T02:42:52;4.80;99.90
13606;DHT22;6874;52.084;5.090;2024-03-25T02:45:18;4.80;99.90
13606;DHT22;6874;52.084;5.090;2024-03-25T02:47:46;4.80;99.90
13606;DHT22;6874;52.084;5.090;2024-03-25T02:50:11;4.80;99.90
13606;DHT22;6874;52.084;5.090;2024-03-25T02:52:37;4.90;99.90
13606;DHT22;6874;52.084;5.090;2024-03-25T02:55:03;4.80;99.90
13606;DHT22;6874;52.084;5.090;2024-03-25T02:57:28;4.80;99.90
13606;DHT22;6874;52.084;5.090;2024-03-25T02:59:54;4.80;99.90
13606;DHT22;6874;52.084;5.090;2024-03-25T03:02:19;4.90;99.90
13606;DHT22;6874;52.084;5.090;2024-03-25T03:04:45;4.90;99.90
13606;DHT22;6874;52.084;5.090;2024-03-25T03:07:10;4.80;99.90
13606;DHT22;6874;52.084;5.090;2024-03-25T03:09:37;4.90;99.90
13606;DHT22;6874;52.084;5.090;2024-03-25T03:12:03;4.90;99.90
13606;DHT22;6874;52.084;5.090;2024-03-25T03:14:28;4.80;99.90
13606;DHT22;6874;52.084;5.090;2024-03-25T03:16:54;4.90;99.90
13606;DHT22;6874;52.084;5.090;2024-03-25T03:19:26;4.90;99.90
13606;DHT22;6874;52.084;5.090;2024-03-25T03:21:52;4.80;99.90
13606;DHT22;6874;52.084;5.090;2024-03-25T03:24:18;4.80;99.90
13606;DHT22;6874;52.084;5.090;2024-03-25T03:26:44;4.80;99.90
13606;DHT22;6874;52.084;5.090;2024-03-25T03:29:09;4.80;99.90
13606;DHT22;6874;52.084;5.090;2024-03-25T03:31:35;4.80;99.90
13606;DHT22;6874;52.084;5.090;2024-03-25T03:34:01;4.80;99.90
13606;DHT22;6874;52.084;5.090;2024-03-25T03:36:26;4.70;99.90
13606;DHT22;6874;52.084;5.090;2024-03-25T03:38:52;4.80;99.90
13606;DHT22;6874;52.084;5.090;2024-03-25T03:41:17;4.80;99.90
13606;DHT22;6874;52.084;5.090;2024-03-25T03:43:43;4.70;99.90
13606;DHT22;6874;52.084;5.090;2024-03-25T03:46:09;4.80;99.90
13606;DHT22;6874;52.084;5.090;2024-03-25T03:48:34;4.70;99.90
13606;DHT22;6874;52.084;5.090;2024-03-25T03:51:01;4.70;99.90
13606;DHT22;6874;52.084;5.090;2024-03-25T03:53:27;4.70;99.90
13606;DHT22;6874;52.084;5.090;2024-03-25T03:56:03;4.70;99.90
13606;DHT22;6874;52.084;5.090;2024-03-25T03:58:33;4.70;99.90
13606;DHT22;6874;52.084;5.090;2024-03-25T04:01:00;4.60;99.90
13606;DHT22;6874;52.084;5.090;2024-03-25T04:03:25;4.60;99.90
13606;DHT22;6874;52.084;5.090;2024-03-25T04:05:51;4.60;99.90
13606;DHT22;6874;52.084;5.090;2024-03-25T04:08:17;4.60;99.90
13606;DHT22;6874;52.084;5.090;2024-03-25T04:10:43;4.60;99.90
13606;DHT22;6874;52.084;5.090;2024-03-25T04:13:09;4.60;99.90
13606;DHT22;6874;52.084;5.090;2024-03-25T04:15:35;4.60;99.90
13606;DHT22;6874;52.084;5.090;2024-03-25T04:18:02;4.50;99.90
13606;DHT22;6874;52.084;5.090;2024-03-25T04:20:28;4.50;99.90
13606;DHT22;6874;52.084;5.090;2024-03-25T04:22:56;4.50;99.90
13606;DHT22;6874;52.084;5.090;2024-03-25T04:25:22;4.40;99.90
13606;DHT22;6874;52.084;5.090;2024-03-25T04:27:48;4.40;99.90
13606;DHT22;6874;52.084;5.090;2024-03-25T04:30:14;4.40;99.90
13606;DHT22;6874;52.084;5.090;2024-03-25T04:32:40;4.40;99.90
13606;DHT22;6874;52.084;5.090;2024-03-25T04:35:06;4.40;99.90
13606;DHT22;6874;52.084;5.090;2024-03-25T04:37:33;4.40;99.90
13606;DHT22;6874;52.084;5.090;2024-03-25T04:39:58;4.40;99.90
13606;DHT22;6874;52.084;5.090;2024-03-25T04:42:24;4.30;99.90
13606;DHT22;6874;52.084;5.090;2024-03-25T04:44:50;4.30;99.90
13606;DHT22;6874;52.084;5.090;2024-03-25T04:47:16;4.30;99.90
13606;DHT22;6874;52.084;5.090;2024-03-25T04:49:42;4.30;99.90
13606;DHT22;6874;52.084;5.090;2024-03-25T04:52:07;4.30;99.90
13606;DHT22;6874;52.084;5.090;2024-03-25T04:54:33;4.30;99.90
13606;DHT22;6874;52.084;5.090;2024-03-25T04:56:58;4.20;99.90
13606;DHT22;6874;52.084;5.090;2024-03-25T04:59:24;4.20;99.90
13606;DHT22;6874;52.084;5.090;2024-03-25T05:01:49;4.20;99.90
13606;DHT22;6874;52.084;5.090;2024-03-25T05:04:15;4.20;99.90
13606;DHT22;6874;52.084;5.090;2024-03-25T05:06:41;4.20;99.90
13606;DHT22;6874;52.084;5.090;2024-03-25T05:09:06;4.20;99.90
13606;DHT22;6874;52.084;5.090;2024-03-25T05:11:32;4.20;99.90
13606;DHT22;6874;52.084;5.090;2024-03-25T05:13:58;4.10;99.90
13606;DHT22;6874;52.084;5.090;2024-03-25T05:16:24;4.10;99.90
13606;DHT22;6874;52.084;5.090;2024-03-25T05:18:49;4.10;99.90
13606;DHT22;6874;52.084;5.090;2024-03-25T05:21:15;4.10;99.90
13606;DHT22;6874;52.084;5.090;2024-03-25T05:23:41;4.00;99.90
13606;DHT22;6874;52.084;5.090;2024-03-25T05:26:06;4.00;99.90
13606;DHT22;6874;52.084;5.090;2024-03-25T05:28:32;4.00;99.90
13606;DHT22;6874;52.084;5.090;2024-03-25T05:31:08;4.00;99.90
13606;DHT22;6874;52.084;5.090;2024-03-25T05:33:34;4.00;99.90
13606;DHT22;6874;52.084;5.090;2024-03-25T05:36:00;3.90;99.90
13606;DHT22;6874;52.084;5.090;2024-03-25T05:38:26;3.90;99.90
13606;DHT22;6874;52.084;5.090;2024-03-25T05:40:52;3.90;99.90
13606;DHT22;6874;52.084;5.090;2024-03-25T05:43:17;3.90;99.90
13606;DHT22;6874;52.084;5.090;2024-03-25T05:45:53;3.90;99.90
13606;DHT22;6874;52.084;5.090;2024-03-25T05:48:19;3.90;99.90
13606;DHT22;6874;52.084;5.090;2024-03-25T05:50:45;3.80;99.90
13606;DHT22;6874;52.084;5.090;2024-03-25T05:53:11;3.80;99.90
13606;DHT22;6874;52.084;5.090;2024-03-25T05:55:36;3.80;99.90
13606;DHT22;6874;52.084;5.090;2024-03-25T05:58:02;3.90;99.90
13606;DHT22;6874;52.084;5.090;2024-03-25T06:00:30;3.80;99.90
13606;DHT22;6874;52.084;5.090;2024-03-25T06:02:56;3.80;99.90
13606;DHT22;6874;52.084;5.090;2024-03-25T06:05:22;3.70;99.90
13606;DHT22;6874;52.084;5.090;2024-03-25T06:07:47;3.80;99.90
13606;DHT22;6874;52.084;5.090;2024-03-25T06:10:13;3.70;99.90
13606;DHT22;6874;52.084;5.090;2024-03-25T06:12:39;3.70;99.90
13606;DHT22;6874;52.084;5.090;2024-03-25T06:15:05;3.70;99.90
13606;DHT22;6874;52.084;5.090;2024-03-25T06:17:30;3.70;99.90
13606;DHT22;6874;52.084;5.090;2024-03-25T06:19:56;3.70;99.90
13606;DHT22;6874;52.084;5.090;2024-03-25T06:22:21;3.70;99.90
13606;DHT22;6874;52.084;5.090;2024-03-25T06:24:47;3.70;99.90
13606;DHT22;6874;52.084;5.090;2024-03-25T06:27:14;3.70;99.90
13606;DHT22;6874;52.084;5.090;2024-03-25T06:29:40;3.70;99.90
13606;DHT22;6874;52.084;5.090;2024-03-25T06:32:05;3.70;99.90
13606;DHT22;6874;52.084;5.090;2024-03-25T06:34:50;3.70;99.90
13606;DHT22;6874;52.084;5.090;2024-03-25T06:37:15;3.60;99.90
13606;DHT22;6874;52.084;5.090;2024-03-25T06:39:41;3.60;99.90
13606;DHT22;6874;52.084;5.090;2024-03-25T06:42:07;3.70;99.90
13606;DHT22;6874;52.084;5.090;2024-03-25T06:44:32;3.60;99.90
13606;DHT22;6874;52.084;5.090;2024-03-25T06:46:58;3.70;99.90
13606;DHT22;6874;52.084;5.090;2024-03-25T06:49:24;3.70;99.90
13606;DHT22;6874;52.084;5.090;2024-03-25T06:51:50;3.70;99.90
13606;DHT22;6874;52.084;5.090;2024-03-25T06:54:15;3.60;99.90
13606;DHT22;6874;52.084;5.090;2024-03-25T06:56:41;3.60;99.90
13606;DHT22;6874;52.084;5.090;2024-03-25T06:59:07;3.60;99.90
13606;DHT22;6874;52.084;5.090;2024-03-25T07:01:32;3.70;99.90
13606;DHT22;6874;52.084;5.090;2024-03-25T07:03:58;3.70;99.90
13606;DHT22;6874;52.084;5.090;2024-03-25T07:06:24;3.60;99.90
13606;DHT22;6874;52.084;5.090;2024-03-25T07:08:50;3.70;99.90
13606;DHT22;6874;52.084;5.090;2024-03-25T07:11:16;3.60;99.90
13606;DHT22;6874;52.084;5.090;2024-03-25T07:13:43;3.70;99.90
13606;DHT22;6874;52.084;5.090;2024-03-25T07:16:08;3.70;99.90
13606;DHT22;6874;52.084;5.090;2024-03-25T07:18:34;3.70;99.90
13606;DHT22;6874;52.084;5.090;2024-03-25T07:20:59;3.70;99.90
13606;DHT22;6874;52.084;5.090;2024-03-25T07:23:25;3.80;99.90
13606;DHT22;6874;52.084;5.090;2024-03-25T07:25:50;3.80;99.90
13606;DHT22;6874;52.084;5.090;2024-03-25T07:28:16;3.80;99.90
13606;DHT22;6874;52.084;5.090;2024-03-25T07:30:42;3.80;99.90
13606;DHT22;6874;52.084;5.090;2024-03-25T07:33:07;3.80;99.90
13606;DHT22;6874;52.084;5.090;2024-03-25T07:35:33;3.80;99.90
13606;DHT22;6874;52.084;5.090;2024-03-25T07:37:59;3.80;99.90
13606;DHT22;6874;52.084;5.090;2024-03-25T07:40:24;3.80;99.90
13606;DHT22;6874;52.084;5.090;2024-03-25T07:42:50;3.80;99.90
13606;DHT22;6874;52.084;5.090;2024-03-25T07:45:16;3.90;99.90
13606;DHT22;6874;52.084;5.090;2024-03-25T07:47:41;3.90;99.90
13606;DHT22;6874;52.084;5.090;2024-03-25T07:50:07;3.90;99.90
13606;DHT22;6874;52.084;5.090;2024-03-25T07:52:33;3.90;99.90
13606;DHT22;6874;52.084;5.090;2024-03-25T07:55:01;3.90;99.90
13606;DHT22;6874;52.084;5.090;2024-03-25T07:57:27;4.00;99.90
13606;DHT22;6874;52.084;5.090;2024-03-25T07:59:53;4.00;99.90
13606;DHT22;6874;52.084;5.090;2024-03-25T08:02:19;4.00;99.90
13606;DHT22;6874;52.084;5.090;2024-03-25T08:04:44;4.10;99.90
13606;DHT22;6874;52.084;5.090;2024-03-25T08:07:10;4.10;99.90
13606;DHT22;6874;52.084;5.090;2024-03-25T08:09:35;4.10;99.90
13606;DHT22;6874;52.084;5.090;2024-03-25T08:12:01;4.20;99.90
13606;DHT22;6874;52.084;5.090;2024-03-25T08:14:26;4.20;99.90
13606;DHT22;6874;52.084;5.090;2024-03-25T08:16:52;4.20;99.90
13606;DHT22;6874;52.084;5.090;2024-03-25T08:19:18;4.20;99.90
13606;DHT22;6874;52.084;5.090;2024-03-25T08:21:43;4.20;99.90
13606;DHT22;6874;52.084;5.090;2024-03-25T08:24:09;4.30;99.90
13606;DHT22;6874;52.084;5.090;2024-03-25T08:26:34;4.30;99.90
13606;DHT22;6874;52.084;5.090;2024-03-25T08:29:00;4.30;99.90
13606;DHT22;6874;52.084;5.090;2024-03-25T08:31:25;4.40;99.90
13606;DHT22;6874;52.084;5.090;2024-03-25T08:33:51;4.40;99.90
13606;DHT22;6874;52.084;5.090;2024-03-25T08:36:17;4.40;99.90
13606;DHT22;6874;52.084;5.090;2024-03-25T08:38:43;4.40;99.90
13606;DHT22;6874;52.084;5.090;2024-03-25T08:41:09;4.50;99.90
13606;DHT22;6874;52.084;5.090;2024-03-25T08:43:35;4.50;99.90
13606;DHT22;6874;52.084;5.090;2024-03-25T08:46:00;4.50;99.90
13606;DHT22;6874;52.084;5.090;2024-03-25T08:48:26;4.60;99.90
13606;DHT22;6874;52.084;5.090;2024-03-25T08:50:52;4.60;99.90
13606;DHT22;6874;52.084;5.090;2024-03-25T08:53:17;4.60;99.90
13606;DHT22;6874;52.084;5.090;2024-03-25T08:55:46;4.70;99.90
13606;DHT22;6874;52.084;5.090;2024-03-25T08:58:13;4.80;99.90
13606;DHT22;6874;52.084;5.090;2024-03-25T09:00:38;4.80;99.90
13606;DHT22;6874;52.084;5.090;2024-03-25T09:03:04;5.00;99.90
13606;DHT22;6874;52.084;5.090;2024-03-25T09:05:30;5.00;99.90
13606;DHT22;6874;52.084;5.090;2024-03-25T09:07:56;5.10;99.90
13606;DHT22;6874;52.084;5.090;2024-03-25T09:10:24;5.10;99.90
13606;DHT22;6874;52.084;5.090;2024-03-25T09:13:08;5.20;99.90
13606;DHT22;6874;52.084;5.090;2024-03-25T09:15:34;5.30;99.90
13606;DHT22;6874;52.084;5.090;2024-03-25T09:18:00;5.30;99.90
13606;DHT22;6874;52.084;5.090;2024-03-25T09:20:25;5.40;99.90
13606;DHT22;6874;52.084;5.090;2024-03-25T09:22:52;5.40;99.90
13606;DHT22;6874;52.084;5.090;2024-03-25T09:25:18;5.50;99.90
13606;DHT22;6874;52.084;5.090;2024-03-25T09:27:47;5.50;99.90
13606;DHT22;6874;52.084;5.090;2024-03-25T09:30:14;5.60;99.90
13606;DHT22;6874;52.084;5.090;2024-03-25T09:32:40;5.60;99.90
13606;DHT22;6874;52.084;5.090;2024-03-25T09:35:06;5.70;99.90
13606;DHT22;6874;52.084;5.090;2024-03-25T09:37:32;5.70;99.90
13606;DHT22;6874;52.084;5.090;2024-03-25T09:39:58;5.70;99.90
13606;DHT22;6874;52.084;5.090;2024-03-25T09:42:27;5.80;99.90
13606;DHT22;6874;52.084;5.090;2024-03-25T09:44:54;5.90;99.90
13606;DHT22;6874;52.084;5.090;2024-03-25T09:47:21;5.90;99.90
13606;DHT22;6874;52.084;5.090;2024-03-25T09:49:47;6.00;99.90
13606;DHT22;6874;52.084;5.090;2024-03-25T09:52:14;6.00;99.90
13606;DHT22;6874;52.084;5.090;2024-03-25T09:54:40;6.00;99.90
13606;DHT22;6874;52.084;5.090;2024-03-25T09:57:06;6.10;99.90
13606;DHT22;6874;52.084;5.090;2024-03-25T09:59:33;6.20;99.90
13606;DHT22;6874;52.084;5.090;2024-03-25T10:01:59;6.20;99.90
13606;DHT22;6874;52.084;5.090;2024-03-25T10:04:26;6.30;99.90
13606;DHT22;6874;52.084;5.090;2024-03-25T10:06:51;6.40;99.90
13606;DHT22;6874;52.084;5.090;2024-03-25T10:09:20;6.40;99.90
13606;DHT22;6874;52.084;5.090;2024-03-25T10:11:49;6.50;99.90
13606;DHT22;6874;52.084;5.090;2024-03-25T10:14:18;6.60;99.90
13606;DHT22;6874;52.084;5.090;2024-03-25T10:16:48;6.70;99.90
13606;DHT22;6874;52.084;5.090;2024-03-25T10:19:14;6.80;99.90
13606;DHT22;6874;52.084;5.090;2024-03-25T10:21:40;6.90;99.90
13606;DHT22;6874;52.084;5.090;2024-03-25T10:24:06;7.00;99.90
13606;DHT22;6874;52.084;5.090;2024-03-25T10:26:32;7.00;99.90
13606;DHT22;6874;52.084;5.090;2024-03-25T10:29:05;7.10;99.90
13606;DHT22;6874;52.084;5.090;2024-03-25T10:31:34;7.20;99.90
13606;DHT22;6874;52.084;5.090;2024-03-25T10:33:59;7.30;99.90
13606;DHT22;6874;52.084;5.090;2024-03-25T10:36:25;7.40;99.90
13606;DHT22;6874;52.084;5.090;2024-03-25T10:39:01;7.50;99.90
13606;DHT22;6874;52.084;5.090;2024-03-25T10:41:28;7.60;99.90
13606;DHT22;6874;52.084;5.090;2024-03-25T10:43:55;7.70;99.90
13606;DHT22;6874;52.084;5.090;2024-03-25T10:46:24;7.80;99.90
13606;DHT22;6874;52.084;5.090;2024-03-25T10:49:14;7.90;99.90
13606;DHT22;6874;52.084;5.090;2024-03-25T10:51:42;8.00;99.90
13606;DHT22;6874;52.084;5.090;2024-03-25T10:54:10;8.10;99.90
13606;DHT22;6874;52.084;5.090;2024-03-25T10:56:36;8.20;99.90
13606;DHT22;6874;52.084;5.090;2024-03-25T10:59:02;8.20;99.90
13606;DHT22;6874;52.084;5.090;2024-03-25T11:01:29;8.30;99.90
13606;DHT22;6874;52.084;5.090;2024-03-25T11:03:56;8.50;99.90
13606;DHT22;6874;52.084;5.090;2024-03-25T11:06:22;8.60;99.90
13606;DHT22;6874;52.084;5.090;2024-03-25T11:08:56;8.70;99.90
13606;DHT22;6874;52.084;5.090;2024-03-25T11:11:23;8.80;99.90
13606;DHT22;6874;52.084;5.090;2024-03-25T11:13:49;9.00;99.90
13606;DHT22;6874;52.084;5.090;2024-03-25T11:16:40;9.20;99.90
13606;DHT22;6874;52.084;5.090;2024-03-25T11:19:06;9.30;99.90
13606;DHT22;6874;52.084;5.090;2024-03-25T11:21:35;9.50;99.90
13606;DHT22;6874;52.084;5.090;2024-03-25T11:24:08;9.50;99.90
13606;DHT22;6874;52.084;5.090;2024-03-25T11:26:34;9.60;99.90
13606;DHT22;6874;52.084;5.090;2024-03-25T11:29:02;9.70;99.90
13606;DHT22;6874;52.084;5.090;2024-03-25T11:31:28;9.70;99.90
13606;DHT22;6874;52.084;5.090;2024-03-25T11:33:56;9.70;99.90
13606;DHT22;6874;52.084;5.090;2024-03-25T11:36:22;9.70;99.90
13606;DHT22;6874;52.084;5.090;2024-03-25T11:39:02;9.80;99.90
13606;DHT22;6874;52.084;5.090;2024-03-25T11:41:31;9.80;99.90
13606;DHT22;6874;52.084;5.090;2024-03-25T11:43:57;9.90;99.90
13606;DHT22;6874;52.084;5.090;2024-03-25T11:46:26;10.00;99.90
13606;DHT22;6874;52.084;5.090;2024-03-25T11:48:55;10.10;99.90
13606;DHT22;6874;52.084;5.090;2024-03-25T11:51:20;10.20;99.90
13606;DHT22;6874;52.084;5.090;2024-03-25T11:53:46;10.30;99.90
13606;DHT22;6874;52.084;5.090;2024-03-25T11:56:12;10.40;99.90
13606;DHT22;6874;52.084;5.090;2024-03-25T11:58:38;10.40;99.90
13606;DHT22;6874;52.084;5.090;2024-03-25T12:01:04;10.50;99.90
13606;DHT22;6874;52.084;5.090;2024-03-25T12:03:29;10.60;99.90
13606;DHT22;6874;52.084;5.090;2024-03-25T12:05:56;10.60;99.90
13606;DHT22;6874;52.084;5.090;2024-03-25T12:08:22;10.70;99.90
13606;DHT22;6874;52.084;5.090;2024-03-25T12:10:51;10.70;99.90
13606;DHT22;6874;52.084;5.090;2024-03-25T12:13:38;10.90;99.90
13606;DHT22;6874;52.084;5.090;2024-03-25T12:16:08;11.00;99.90
13606;DHT22;6874;52.084;5.090;2024-03-25T12:18:40;11.00;99.90
13606;DHT22;6874;52.084;5.090;2024-03-25T12:21:07;11.10;99.90
13606;DHT22;6874;52.084;5.090;2024-03-25T12:23:33;11.10;99.90
13606;DHT22;6874;52.084;5.090;2024-03-25T12:26:02;11.20;99.90
13606;DHT22;6874;52.084;5.090;2024-03-25T12:28:28;11.20;99.90
13606;DHT22;6874;52.084;5.090;2024-03-25T12:30:56;11.30;99.90
13606;DHT22;6874;52.084;5.090;2024-03-25T12:33:22;11.30;99.90
13606;DHT22;6874;52.084;5.090;2024-03-25T12:35:49;11.40;99.90
13606;DHT22;6874;52.084;5.090;2024-03-25T12:38:27;11.40;99.90
13606;DHT22;6874;52.084;5.090;2024-03-25T12:40:54;11.50;99.90
13606;DHT22;6874;52.084;5.090;2024-03-25T12:43:28;11.60;99.90
13606;DHT22;6874;52.084;5.090;2024-03-25T12:45:53;11.60;99.90
13606;DHT22;6874;52.084;5.090;2024-03-25T12:48:19;11.70;99.90
13606;DHT22;6874;52.084;5.090;2024-03-25T12:50:44;11.80;99.90
13606;DHT22;6874;52.084;5.090;2024-03-25T12:53:17;11.80;99.90
13606;DHT22;6874;52.084;5.090;2024-03-25T12:55:43;11.90;99.90
13606;DHT22;6874;52.084;5.090;2024-03-25T12:58:09;11.90;99.90
13606;DHT22;6874;52.084;5.090;2024-03-25T13:00:34;12.00;99.90
13606;DHT22;6874;52.084;5.090;2024-03-25T13:03:00;12.10;99.90
13606;DHT22;6874;52.084;5.090;2024-03-25T13:05:27;12.00;99.90
13606;DHT22;6874;52.084;5.090;2024-03-25T13:07:53;12.20;99.90
13606;DHT22;6874;52.084;5.090;2024-03-25T13:10:19;12.20;99.90
13606;DHT22;6874;52.084;5.090;2024-03-25T13:12:45;12.30;99.90
13606;DHT22;6874;52.084;5.090;2024-03-25T13:15:11;12.40;99.90
13606;DHT22;6874;52.084;5.090;2024-03-25T13:17:36;12.50;99.90
13606;DHT22;6874;52.084;5.090;2024-03-25T13:20:02;12.50;99.90
13606;DHT22;6874;52.084;5.090;2024-03-25T13:22:30;12.60;99.90
13606;DHT22;6874;52.084;5.090;2024-03-25T13:24:57;12.70;99.90
13606;DHT22;6874;52.084;5.090;2024-03-25T13:27:22;12.80;99.90
13606;DHT22;6874;52.084;5.090;2024-03-25T13:29:48;13.00;99.90
13606;DHT22;6874;52.084;5.090;2024-03-25T13:32:13;13.00;99.90
13606;DHT22;6874;52.084;5.090;2024-03-25T13:34:39;13.10;99.90
13606;DHT22;6874;52.084;5.090;2024-03-25T13:37:05;13.10;99.90
13606;DHT22;6874;52.084;5.090;2024-03-25T13:39:30;13.10;99.90
13606;DHT22;6874;52.084;5.090;2024-03-25T13:41:56;13.10;99.90
13606;DHT22;6874;52.084;5.090;2024-03-25T13:44:21;13.10;99.90
13606;DHT22;6874;52.084;5.090;2024-03-25T13:46:47;13.10;99.90
13606;DHT22;6874;52.084;5.090;2024-03-25T13:49:13;13.10;99.90
13606;DHT22;6874;52.084;5.090;2024-03-25T13:51:40;13.00;99.90
13606;DHT22;6874;52.084;5.090;2024-03-25T13:54:06;13.00;99.90
13606;DHT22;6874;52.084;5.090;2024-03-25T13:56:32;13.00;99.90
13606;DHT22;6874;52.084;5.090;2024-03-25T13:58:57;13.00;99.90
13606;DHT22;6874;52.084;5.090;2024-03-25T14:01:23;12.90;99.90
13606;DHT22;6874;52.084;5.090;2024-03-25T14:03:51;12.90;99.90
13606;DHT22;6874;52.084;5.090;2024-03-25T14:06:16;12.90;99.90
13606;DHT22;6874;52.084;5.090;2024-03-25T14:08:42;12.90;99.90
13606;DHT22;6874;52.084;5.090;2024-03-25T14:11:09;12.80;99.90
13606;DHT22;6874;52.084;5.090;2024-03-25T14:13:35;12.80;99.90
13606;DHT22;6874;52.084;5.090;2024-03-25T14:16:00;12.80;99.90
13606;DHT22;6874;52.084;5.090;2024-03-25T14:18:26;12.80;99.90
13606;DHT22;6874;52.084;5.090;2024-03-25T14:20:52;12.80;99.90
13606;DHT22;6874;52.084;5.090;2024-03-25T14:23:17;12.80;99.90
13606;DHT22;6874;52.084;5.090;2024-03-25T14:25:43;12.70;99.90
13606;DHT22;6874;52.084;5.090;2024-03-25T14:28:08;12.80;99.90
13606;DHT22;6874;52.084;5.090;2024-03-25T14:30:35;12.80;99.90
13606;DHT22;6874;52.084;5.090;2024-03-25T14:33:00;12.90;99.90
13606;DHT22;6874;52.084;5.090;2024-03-25T14:35:26;12.90;99.90
13606;DHT22;6874;52.084;5.090;2024-03-25T14:37:51;12.90;99.90
13606;DHT22;6874;52.084;5.090;2024-03-25T14:40:17;13.00;99.90
13606;DHT22;6874;52.084;5.090;2024-03-25T14:42:43;13.00;99.90
13606;DHT22;6874;52.084;5.090;2024-03-25T14:45:09;13.00;99.90
13606;DHT22;6874;52.084;5.090;2024-03-25T14:47:34;13.10;99.90
13606;DHT22;6874;52.084;5.090;2024-03-25T14:50:00;13.10;99.90
13606;DHT22;6874;52.084;5.090;2024-03-25T14:52:25;13.10;99.90
13606;DHT22;6874;52.084;5.090;2024-03-25T14:54:51;13.10;99.90
13606;DHT22;6874;52.084;5.090;2024-03-25T14:57:17;13.10;99.90
13606;DHT22;6874;52.084;5.090;2024-03-25T14:59:42;13.20;99.90
13606;DHT22;6874;52.084;5.090;2024-03-25T15:02:08;13.20;99.90
13606;DHT22;6874;52.084;5.090;2024-03-25T15:04:33;13.20;99.90
13606;DHT22;6874;52.084;5.090;2024-03-25T15:06:59;13.10;99.90
13606;DHT22;6874;52.084;5.090;2024-03-25T15:09:25;13.10;99.90
13606;DHT22;6874;52.084;5.090;2024-03-25T15:11:51;13.10;99.90
13606;DHT22;6874;52.084;5.090;2024-03-25T15:14:16;13.10;99.90
13606;DHT22;6874;52.084;5.090;2024-03-25T15:16:42;13.10;99.90
13606;DHT22;6874;52.084;5.090;2024-03-25T15:19:07;13.10;99.90
13606;DHT22;6874;52.084;5.090;2024-03-25T15:21:35;13.10;99.90
13606;DHT22;6874;52.084;5.090;2024-03-25T15:24:02;13.10;99.90
13606;DHT22;6874;52.084;5.090;2024-03-25T15:26:28;13.10;99.90
13606;DHT22;6874;52.084;5.090;2024-03-25T15:28:53;12.90;99.90
13606;DHT22;6874;52.084;5.090;2024-03-25T15:31:19;12.90;99.90
13606;DHT22;6874;52.084;5.090;2024-03-25T15:33:44;12.90;99.90
13606;DHT22;6874;52.084;5.090;2024-03-25T15:36:10;12.90;99.90
13606;DHT22;6874;52.084;5.090;2024-03-25T15:38:36;12.90;99.90
13606;DHT22;6874;52.084;5.090;2024-03-25T15:41:02;12.90;99.90
13606;DHT22;6874;52.084;5.090;2024-03-25T15:43:29;12.90;99.90
13606;DHT22;6874;52.084;5.090;2024-03-25T15:45:56;12.90;99.90
13606;DHT22;6874;52.084;5.090;2024-03-25T15:48:23;12.90;99.90
13606;DHT22;6874;52.084;5.090;2024-03-25T15:50:48;12.90;99.90
13606;DHT22;6874;52.084;5.090;2024-03-25T15:53:14;12.90;99.90